createdAt,value
2018-01-06T00:00:16.131Z,83.56
2018-01-06T00:02:43.518Z,83.34
2018-01-06T00:05:10.917Z,83.04
2018-01-06T00:07:38.366Z,82.85
2018-01-06T00:10:05.825Z,82.87
2018-01-06T00:12:33.206Z,82.99
2018-01-06T00:15:00.594Z,82.17
2018-01-06T00:17:27.986Z,82.79
2018-01-06T00:19:55.366Z,82.75
2018-01-06T00:22:22.772Z,82.35
2018-01-06T00:24:50.282Z,82.77
2018-01-06T00:27:17.678Z,83.17
2018-01-06T00:29:45.168Z,83.03
2018-01-06T00:32:12.566Z,83.58
2018-01-06T00:34:39.949Z,82.77
2018-01-06T00:37:07.343Z,83.32
2018-01-06T00:39:34.738Z,83.53
2018-01-06T00:42:02.153Z,83.53
2018-01-06T00:44:29.549Z,84.29
2018-01-06T00:46:57.050Z,84.29
2018-01-06T00:49:24.427Z,84.72
2018-01-06T00:51:51.835Z,84.58
2018-01-06T00:54:19.334Z,84.79
2018-01-06T00:56:46.738Z,85.00
2018-01-06T00:59:14.278Z,85.27
2018-01-06T01:01:41.729Z,84.96
2018-01-06T01:04:09.079Z,84.40
2018-01-06T01:06:36.475Z,84.51
2018-01-06T01:09:03.867Z,83.86
2018-01-06T01:11:31.275Z,83.63
2018-01-06T01:13:58.664Z,83.41
2018-01-06T01:16:26.052Z,84.50
2018-01-06T01:18:53.452Z,83.92
2018-01-06T01:21:20.863Z,83.59
2018-01-06T01:23:48.291Z,83.88
2018-01-06T01:26:15.666Z,84.15
2018-01-06T01:28:43.058Z,84.68
2018-01-06T01:31:10.467Z,84.28
2018-01-06T01:33:37.895Z,84.03
2018-01-06T01:36:05.288Z,84.43
2018-01-06T01:38:32.691Z,85.47
2018-01-06T01:41:00.071Z,85.56
2018-01-06T01:43:27.473Z,85.32
2018-01-06T01:45:54.859Z,85.06
2018-01-06T01:48:22.256Z,85.06
2018-01-06T01:50:49.674Z,85.55
2018-01-06T01:53:17.061Z,85.43
2018-01-06T01:55:44.458Z,85.30
2018-01-06T01:58:11.874Z,85.10
2018-01-06T02:00:39.251Z,85.09
2018-01-06T02:03:06.643Z,84.85
2018-01-06T02:05:34.047Z,84.15
2018-01-06T02:08:01.432Z,84.12
2018-01-06T02:10:28.832Z,84.87
2018-01-06T02:12:56.294Z,84.82
2018-01-06T02:15:23.703Z,84.68
2018-01-06T02:17:51.210Z,84.58
2018-01-06T02:20:18.668Z,84.30
2018-01-06T02:22:46.066Z,84.52
2018-01-06T02:25:13.446Z,83.98
2018-01-06T02:27:40.855Z,84.05
2018-01-06T02:30:08.292Z,83.89
2018-01-06T02:32:35.678Z,83.91
2018-01-06T02:35:03.088Z,83.91
2018-01-06T02:37:30.511Z,84.25
2018-01-06T02:39:57.911Z,84.53
2018-01-06T02:42:25.292Z,84.10
2018-01-06T02:44:52.706Z,83.86
2018-01-06T02:47:20.101Z,83.92
2018-01-06T02:49:47.483Z,83.53
2018-01-06T02:52:14.891Z,83.48
2018-01-06T02:54:42.264Z,82.75
2018-01-06T02:57:09.651Z,82.86
2018-01-06T02:59:37.067Z,83.38
2018-01-06T03:02:04.440Z,83.12
2018-01-06T03:04:31.847Z,82.87
2018-01-06T03:06:59.252Z,82.98
2018-01-06T03:09:26.634Z,82.78
2018-01-06T03:11:54.035Z,83.13
2018-01-06T03:14:21.425Z,82.93
2018-01-06T03:16:48.814Z,83.00
2018-01-06T03:19:16.278Z,83.06
2018-01-06T03:21:43.680Z,83.08
2018-01-06T03:24:11.100Z,83.13
2018-01-06T03:26:38.514Z,83.30
2018-01-06T03:29:05.903Z,83.16
2018-01-06T03:31:33.296Z,82.98
2018-01-06T03:34:00.688Z,82.74
2018-01-06T03:36:28.075Z,82.41
2018-01-06T03:38:55.491Z,82.24
2018-01-06T03:41:22.895Z,82.19
2018-01-06T03:43:50.319Z,82.55
2018-01-06T03:46:18.703Z,82.93
2018-01-06T03:48:46.091Z,82.66
2018-01-06T03:51:13.488Z,82.50
2018-01-06T03:53:40.975Z,83.06
2018-01-06T03:56:08.395Z,83.60
2018-01-06T03:58:35.782Z,84.23
2018-01-06T04:01:03.200Z,83.48
2018-01-06T04:03:30.607Z,84.23
2018-01-06T04:05:58.011Z,84.94
2018-01-06T04:08:25.407Z,84.69
2018-01-06T04:10:52.811Z,84.33
2018-01-06T04:13:20.238Z,83.95
2018-01-06T04:15:47.635Z,83.70
2018-01-06T04:18:15.023Z,83.95
2018-01-06T04:20:42.415Z,84.60
2018-01-06T04:23:09.817Z,84.90
2018-01-06T04:25:37.203Z,84.74
2018-01-06T04:28:04.617Z,83.97
2018-01-06T04:30:31.998Z,84.13
2018-01-06T04:32:59.416Z,84.47
2018-01-06T04:35:27.331Z,84.48
2018-01-06T04:37:54.761Z,84.31
2018-01-06T04:40:22.151Z,83.85
2018-01-06T04:42:49.573Z,84.17
2018-01-06T04:45:16.987Z,84.31
2018-01-06T04:47:44.398Z,84.63
2018-01-06T04:50:11.796Z,84.78
2018-01-06T04:52:39.198Z,84.03
2018-01-06T04:55:06.586Z,83.98
2018-01-06T04:57:33.994Z,83.72
2018-01-06T05:00:01.480Z,82.88
2018-01-06T05:02:28.886Z,83.65
2018-01-06T05:04:56.276Z,83.55
2018-01-06T05:07:23.678Z,83.25
2018-01-06T05:09:51.071Z,83.50
2018-01-06T05:12:18.518Z,83.83
2018-01-06T05:14:45.923Z,83.63
2018-01-06T05:17:13.314Z,83.23
2018-01-06T05:19:40.729Z,83.05
2018-01-06T05:22:08.112Z,83.06
2018-01-06T05:24:36.515Z,83.46
2018-01-06T05:27:03.916Z,84.03
2018-01-06T05:29:31.307Z,83.96
2018-01-06T05:31:58.713Z,84.57
2018-01-06T05:34:26.126Z,84.51
2018-01-06T05:36:53.529Z,84.97
2018-01-06T05:39:20.932Z,84.41
2018-01-06T05:41:48.318Z,84.23
2018-01-06T05:44:15.819Z,84.91
2018-01-06T05:46:43.235Z,84.13
2018-01-06T05:49:10.646Z,84.11
2018-01-06T05:51:38.145Z,83.81
2018-01-06T05:54:05.536Z,83.95
2018-01-06T05:56:32.954Z,83.69
2018-01-06T05:59:00.359Z,83.37
2018-01-06T06:01:27.759Z,84.84
2018-01-06T06:03:55.142Z,84.67
2018-01-06T06:06:22.566Z,84.36
2018-01-06T06:08:50.031Z,85.18
2018-01-06T06:11:17.433Z,85.10
2018-01-06T06:13:44.823Z,84.87
2018-01-06T06:16:12.231Z,84.77
2018-01-06T06:18:39.614Z,84.94
2018-01-06T06:21:07.026Z,84.31
2018-01-06T06:23:34.412Z,83.76
2018-01-06T06:26:01.832Z,83.76
2018-01-06T06:28:29.212Z,82.81
2018-01-06T06:30:56.643Z,83.32
2018-01-06T06:33:24.103Z,84.14
2018-01-06T06:35:51.503Z,83.93
2018-01-06T06:38:18.886Z,83.58
2018-01-06T06:40:46.286Z,82.77
2018-01-06T06:43:13.674Z,83.43
2018-01-06T06:45:41.102Z,83.63
2018-01-06T06:48:08.498Z,83.47
2018-01-06T06:50:35.906Z,83.50
2018-01-06T06:53:03.319Z,83.77
2018-01-06T06:55:30.707Z,84.44
2018-01-06T06:57:58.131Z,84.83
2018-01-06T07:00:25.510Z,86.09
2018-01-06T07:02:52.919Z,85.77
2018-01-06T07:05:20.346Z,85.59
2018-01-06T07:07:47.748Z,85.56
2018-01-06T07:10:15.159Z,85.22
2018-01-06T07:12:43.366Z,85.35
2018-01-06T07:15:10.866Z,85.35
2018-01-06T07:17:38.258Z,85.56
2018-01-06T07:20:05.646Z,85.77
2018-01-06T07:22:33.054Z,85.37
2018-01-06T07:25:00.464Z,86.04
2018-01-06T07:27:27.948Z,86.35
2018-01-06T07:29:55.357Z,86.51
2018-01-06T07:32:22.765Z,86.20
2018-01-06T07:34:50.202Z,85.86
2018-01-06T07:37:17.595Z,85.22
2018-01-06T07:39:44.995Z,85.45
2018-01-06T07:42:12.408Z,85.19
2018-01-06T07:44:39.822Z,85.26
2018-01-06T07:47:07.220Z,84.52
2018-01-06T07:49:34.620Z,84.67
2018-01-06T07:52:02.024Z,84.93
2018-01-06T07:54:29.426Z,84.36
2018-01-06T07:56:56.808Z,83.97
2018-01-06T07:59:24.231Z,83.76
2018-01-06T08:01:51.643Z,83.26
2018-01-06T08:04:19.047Z,83.42
2018-01-06T08:06:47.249Z,82.65
2018-01-06T08:09:14.634Z,82.59
2018-01-06T08:11:42.039Z,82.17
2018-01-06T08:14:09.481Z,82.76
2018-01-06T08:16:36.874Z,82.90
2018-01-06T08:19:04.262Z,82.51
2018-01-06T08:21:31.685Z,81.83
2018-01-06T08:23:59.084Z,82.00
2018-01-06T08:26:26.475Z,82.03
2018-01-06T08:28:53.886Z,81.67
2018-01-06T08:31:21.315Z,81.54
2018-01-06T08:33:48.699Z,81.29
2018-01-06T08:36:16.203Z,79.84
2018-01-06T08:38:43.639Z,78.84
2018-01-06T08:41:11.016Z,79.21
2018-01-06T08:43:38.484Z,78.08
2018-01-06T08:46:05.881Z,76.78
2018-01-06T08:48:33.258Z,75.26
2018-01-06T08:51:00.683Z,74.46
2018-01-06T08:53:28.084Z,74.23
2018-01-06T08:55:55.478Z,74.48
2018-01-06T08:58:23.070Z,74.86
2018-01-06T09:00:50.473Z,75.60
2018-01-06T09:03:17.872Z,75.85
2018-01-06T09:05:45.266Z,75.59
2018-01-06T09:08:12.673Z,76.23
2018-01-06T09:10:40.096Z,75.90
2018-01-06T09:13:07.573Z,74.96
2018-01-06T09:15:34.946Z,73.39
2018-01-06T09:18:02.352Z,72.09
2018-01-06T09:20:29.742Z,71.47
2018-01-06T09:22:57.160Z,71.28
2018-01-06T09:25:24.559Z,69.43
2018-01-06T09:27:51.955Z,69.20
2018-01-06T09:30:19.360Z,69.18
2018-01-06T09:32:46.759Z,69.94
2018-01-06T09:35:14.151Z,70.41
2018-01-06T09:37:41.553Z,70.81
2018-01-06T09:40:08.946Z,73.04
2018-01-06T09:42:36.343Z,73.43
2018-01-06T09:45:03.743Z,74.24
2018-01-06T09:47:31.141Z,73.63
2018-01-06T09:49:58.527Z,74.61
2018-01-06T09:52:25.960Z,76.18
2018-01-06T09:54:53.365Z,76.16
2018-01-06T09:57:20.737Z,74.14
2018-01-06T09:59:48.158Z,72.25
2018-01-06T10:02:15.643Z,70.49
2018-01-06T10:04:43.046Z,71.72
2018-01-06T10:07:10.444Z,69.84
2018-01-06T10:09:37.839Z,69.22
2018-01-06T10:12:05.243Z,68.24
2018-01-06T10:14:32.643Z,68.81
2018-01-06T10:17:00.029Z,70.19
2018-01-06T10:19:27.426Z,67.95
2018-01-06T10:21:55.726Z,67.14
2018-01-06T10:24:23.139Z,67.01
2018-01-06T10:26:50.618Z,65.27
2018-01-06T10:29:18.022Z,66.14
2018-01-06T10:31:45.556Z,65.96
2018-01-06T10:34:12.968Z,65.31
2018-01-06T10:36:40.372Z,64.20
2018-01-06T10:39:07.776Z,64.79
2018-01-06T10:41:35.170Z,64.64
2018-01-06T10:44:02.588Z,63.56
2018-01-06T10:46:29.978Z,63.97
2018-01-06T10:48:57.379Z,64.82
2018-01-06T10:51:24.791Z,64.99
2018-01-06T10:53:52.214Z,64.70
2018-01-06T10:56:19.646Z,67.40
2018-01-06T10:58:47.119Z,67.31
2018-01-06T11:01:20.364Z,68.29
2018-01-06T11:03:47.750Z,69.43
2018-01-06T11:06:15.307Z,70.55
2018-01-06T11:08:42.708Z,72.08
2018-01-06T11:11:10.120Z,72.02
2018-01-06T11:13:37.503Z,73.34
2018-01-06T11:16:04.960Z,73.89
2018-01-06T11:18:32.350Z,75.14
2018-01-06T11:20:59.854Z,74.39
2018-01-06T11:23:27.247Z,75.10
2018-01-06T11:25:54.669Z,75.32
2018-01-06T11:28:22.058Z,75.52
2018-01-06T11:30:49.474Z,75.23
2018-01-06T11:33:17.055Z,75.35
2018-01-06T11:35:44.475Z,74.93
2018-01-06T11:38:11.886Z,75.64
2018-01-06T11:40:39.455Z,75.33
2018-01-06T11:43:06.903Z,75.19
2018-01-06T11:45:34.306Z,75.68
2018-01-06T11:48:01.785Z,75.22
2018-01-06T11:50:29.171Z,75.81
2018-01-06T11:52:56.578Z,76.68
2018-01-06T11:55:24.005Z,76.92
2018-01-06T11:57:51.429Z,77.96
2018-01-06T12:00:18.823Z,77.66
2018-01-06T12:02:46.223Z,77.46
2018-01-06T12:05:13.665Z,78.26
2018-01-06T12:07:41.001Z,78.45
2018-01-06T12:10:08.400Z,77.90
2018-01-06T12:12:35.818Z,77.91
2018-01-06T12:15:03.235Z,77.89
2018-01-06T12:17:30.650Z,77.67
2018-01-06T12:19:58.038Z,78.01
2018-01-06T12:22:25.440Z,77.76
2018-01-06T12:24:52.835Z,78.34
2018-01-06T12:27:20.244Z,79.12
2018-01-06T12:29:47.638Z,79.00
2018-01-06T12:32:15.043Z,78.39
2018-01-06T12:34:42.446Z,78.56
2018-01-06T12:37:09.854Z,78.71
2018-01-06T12:39:37.250Z,78.71
2018-01-06T12:42:04.656Z,78.70
2018-01-06T12:44:32.049Z,78.58
2018-01-06T12:46:59.439Z,78.77
2018-01-06T12:49:26.847Z,79.39
2018-01-06T12:51:54.260Z,78.46
2018-01-06T12:54:21.663Z,78.29
2018-01-06T12:56:49.050Z,77.97
2018-01-06T12:59:16.526Z,78.17
2018-01-06T13:01:43.923Z,77.77
2018-01-06T13:04:11.363Z,77.37
2018-01-06T13:06:38.782Z,77.28
2018-01-06T13:09:06.190Z,76.63
2018-01-06T13:11:33.587Z,76.35
2018-01-06T13:14:00.987Z,75.98
2018-01-06T13:16:28.393Z,76.18
2018-01-06T13:18:55.796Z,76.27
2018-01-06T13:21:23.206Z,76.62
2018-01-06T13:23:50.620Z,76.08
2018-01-06T13:26:18.019Z,75.41
2018-01-06T13:28:45.414Z,75.22
2018-01-06T13:31:12.820Z,75.96
2018-01-06T13:33:40.248Z,75.52
2018-01-06T13:36:07.646Z,75.42
2018-01-06T13:38:35.047Z,75.18
2018-01-06T13:41:02.460Z,75.04
2018-01-06T13:43:29.854Z,74.90
2018-01-06T13:45:57.263Z,74.77
2018-01-06T13:48:24.658Z,74.51
2018-01-06T13:50:52.067Z,74.38
2018-01-06T13:53:19.459Z,74.19
2018-01-06T13:55:46.886Z,74.34
2018-01-06T13:58:14.296Z,74.27
2018-01-06T14:00:41.700Z,74.62
2018-01-06T14:03:09.102Z,75.23
2018-01-06T14:05:36.500Z,75.57
2018-01-06T14:08:03.901Z,75.71
2018-01-06T14:10:31.391Z,75.13
2018-01-06T14:12:58.781Z,75.13
2018-01-06T14:15:26.179Z,75.01
2018-01-06T14:17:53.575Z,75.12
2018-01-06T14:20:20.990Z,74.90
2018-01-06T14:22:48.374Z,75.10
2018-01-06T14:25:15.834Z,75.87
2018-01-06T14:27:43.251Z,75.49
2018-01-06T14:30:10.639Z,76.21
2018-01-06T14:32:38.203Z,76.51
2018-01-06T14:35:05.594Z,76.58
2018-01-06T14:37:34.590Z,76.13
2018-01-06T14:40:00.427Z,75.89
2018-01-06T14:42:27.953Z,75.71
2018-01-06T14:44:55.381Z,75.46
2018-01-06T14:47:22.794Z,75.03
2018-01-06T14:49:50.183Z,75.35
2018-01-06T14:52:17.600Z,74.77
2018-01-06T14:54:44.990Z,74.54
2018-01-06T14:57:12.398Z,74.90
2018-01-06T14:59:39.802Z,74.59
2018-01-06T15:02:07.231Z,75.23
2018-01-06T15:04:34.657Z,74.81
2018-01-06T15:07:02.071Z,74.38
2018-01-06T15:09:29.478Z,74.96
2018-01-06T15:11:56.895Z,74.70
2018-01-06T15:14:24.319Z,74.56
2018-01-06T15:16:51.735Z,74.41
2018-01-06T15:19:19.162Z,74.21
2018-01-06T15:21:46.582Z,74.21
2018-01-06T15:24:13.986Z,74.09
2018-01-06T15:26:41.413Z,73.75
2018-01-06T15:29:08.815Z,73.78
2018-01-06T15:31:36.230Z,73.93
2018-01-06T15:34:03.642Z,74.10
2018-01-06T15:36:31.100Z,74.23
2018-01-06T15:38:58.600Z,74.13
2018-01-06T15:41:26.010Z,75.41
2018-01-06T15:43:53.419Z,76.64
2018-01-06T15:46:20.812Z,77.69
2018-01-06T15:48:48.211Z,78.84
2018-01-06T15:51:15.615Z,80.49
2018-01-06T15:53:43.018Z,80.75
2018-01-06T15:56:10.431Z,81.15
2018-01-06T15:58:37.842Z,81.41
2018-01-06T16:01:05.241Z,81.64
2018-01-06T16:03:32.647Z,81.44
2018-01-06T16:06:00.182Z,81.43
2018-01-06T16:08:27.580Z,81.38
2018-01-06T16:10:55.026Z,81.48
2018-01-06T16:13:22.410Z,81.95
2018-01-06T16:15:49.834Z,82.31
2018-01-06T16:18:17.218Z,82.63
2018-01-06T16:20:44.627Z,82.38
2018-01-06T16:23:12.015Z,81.87
2018-01-06T16:25:39.406Z,81.35
2018-01-06T16:28:06.799Z,81.13
2018-01-06T16:30:34.199Z,80.12
2018-01-06T16:33:01.650Z,79.25
2018-01-06T16:35:29.043Z,79.82
2018-01-06T16:37:56.426Z,79.46
2018-01-06T16:40:23.900Z,79.18
2018-01-06T16:42:51.346Z,79.18
2018-01-06T16:45:18.744Z,79.19
2018-01-06T16:47:46.123Z,79.85
2018-01-06T16:50:13.542Z,80.42
2018-01-06T16:52:41.084Z,81.23
2018-01-06T16:55:08.468Z,81.08
2018-01-06T16:57:35.854Z,80.42
2018-01-06T17:00:03.972Z,80.76
2018-01-06T17:02:31.354Z,80.78
2018-01-06T17:04:58.741Z,81.19
2018-01-06T17:07:26.273Z,81.41
2018-01-06T17:09:53.656Z,81.66
2018-01-06T17:12:21.051Z,82.11
2018-01-06T17:14:48.478Z,81.67
2018-01-06T17:17:15.879Z,81.52
2018-01-06T17:19:43.314Z,81.39
2018-01-06T17:22:10.708Z,81.47
2018-01-06T17:24:38.096Z,81.80
2018-01-06T17:27:05.491Z,81.64
2018-01-06T17:29:32.927Z,82.82
2018-01-06T17:32:00.323Z,82.76
2018-01-06T17:34:27.739Z,83.31
2018-01-06T17:36:55.135Z,83.32
2018-01-06T17:39:22.539Z,83.83
2018-01-06T17:41:49.954Z,83.99
2018-01-06T17:44:17.402Z,83.64
2018-01-06T17:46:44.922Z,83.52
2018-01-06T17:49:12.324Z,84.17
2018-01-06T17:51:39.735Z,84.01
2018-01-06T17:54:07.114Z,84.52
2018-01-06T17:56:34.501Z,84.58
2018-01-06T17:59:01.987Z,85.03
2018-01-06T18:01:29.398Z,84.75
2018-01-06T18:03:56.812Z,85.24
2018-01-06T18:06:24.255Z,84.87
2018-01-06T18:08:51.616Z,84.99
2018-01-06T18:11:19.007Z,84.71
2018-01-06T18:13:46.399Z,84.61
2018-01-06T18:16:13.884Z,84.71
2018-01-06T18:18:41.279Z,84.59
2018-01-06T18:21:08.672Z,84.60
2018-01-06T18:23:36.054Z,84.64
2018-01-06T18:26:03.454Z,84.48
2018-01-06T18:28:30.843Z,83.71
2018-01-06T18:30:58.315Z,84.05
2018-01-06T18:33:25.818Z,84.27
2018-01-06T18:35:53.250Z,84.28
2018-01-06T18:38:20.627Z,84.59
2018-01-06T18:40:48.055Z,84.33
2018-01-06T18:43:15.458Z,84.65
2018-01-06T18:45:42.867Z,84.36
2018-01-06T18:48:10.254Z,84.14
2018-01-06T18:50:37.671Z,84.68
2018-01-06T18:53:05.067Z,84.95
2018-01-06T18:55:32.466Z,84.79
2018-01-06T18:57:59.865Z,84.58
2018-01-06T19:00:27.287Z,84.32
2018-01-06T19:02:54.683Z,83.57
2018-01-06T19:05:22.123Z,83.73
2018-01-06T19:07:49.527Z,84.41
2018-01-06T19:10:16.902Z,84.50
2018-01-06T19:12:44.294Z,84.68
2018-01-06T19:15:11.682Z,84.32
2018-01-06T19:17:39.072Z,84.69
2018-01-06T19:20:06.517Z,84.14
2018-01-06T19:22:33.903Z,84.33
2018-01-06T19:25:01.302Z,84.27
2018-01-06T19:27:28.704Z,84.64
2018-01-06T19:29:56.276Z,84.51
2018-01-06T19:32:23.722Z,84.77
2018-01-06T19:34:51.132Z,84.42
2018-01-06T19:37:18.520Z,83.23
2018-01-06T19:39:45.906Z,82.68
2018-01-06T19:42:13.295Z,81.48
2018-01-06T19:44:40.684Z,81.97
2018-01-06T19:47:08.079Z,81.24
2018-01-06T19:49:35.474Z,81.29
2018-01-06T19:52:02.907Z,80.60
2018-01-06T19:54:30.286Z,80.76
2018-01-06T19:56:57.679Z,81.04
2018-01-06T19:59:25.071Z,81.16
2018-01-06T20:01:52.581Z,81.03
2018-01-06T20:04:19.943Z,80.54
2018-01-06T20:06:47.345Z,80.51
2018-01-06T20:09:14.724Z,80.70
2018-01-06T20:11:42.143Z,80.52
2018-01-06T20:14:09.587Z,80.88
2018-01-06T20:16:36.982Z,81.11
2018-01-06T20:19:04.372Z,81.09
2018-01-06T20:21:31.769Z,80.44
2018-01-06T20:23:59.154Z,80.93
2018-01-06T20:26:26.560Z,80.83
2018-01-06T20:28:53.955Z,80.83
2018-01-06T20:31:21.354Z,80.78
2018-01-06T20:33:48.746Z,80.25
2018-01-06T20:36:16.142Z,79.92
2018-01-06T20:38:43.567Z,80.59
2018-01-06T20:41:10.964Z,80.69
2018-01-06T20:43:38.351Z,80.61
2018-01-06T20:46:05.759Z,81.02
2018-01-06T20:48:33.154Z,80.67
2018-01-06T20:51:00.547Z,80.78
2018-01-06T20:53:27.940Z,80.70
2018-01-06T20:55:55.334Z,80.41
2018-01-06T20:58:22.725Z,80.56
2018-01-06T21:00:50.111Z,80.84
2018-01-06T21:03:17.528Z,80.88
2018-01-06T21:05:44.954Z,80.46
2018-01-06T21:08:12.329Z,80.45
2018-01-06T21:10:39.735Z,80.39
2018-01-06T21:13:07.126Z,79.48
2018-01-06T21:15:34.518Z,79.50
2018-01-06T21:18:01.932Z,79.58
2018-01-06T21:20:29.348Z,79.99
2018-01-06T21:22:56.733Z,79.40
2018-01-06T21:25:24.134Z,79.71
2018-01-06T21:27:51.547Z,79.86
2018-01-06T21:30:18.944Z,79.77
2018-01-06T21:32:46.353Z,79.97
2018-01-06T21:35:13.786Z,80.27
2018-01-06T21:37:41.184Z,80.37
2018-01-06T21:40:08.583Z,79.90
2018-01-06T21:42:35.987Z,79.69
2018-01-06T21:45:03.398Z,79.98
2018-01-06T21:49:58.180Z,79.34
2018-01-06T21:52:25.590Z,78.86
2018-01-06T21:54:52.982Z,78.72
2018-01-06T21:57:20.382Z,78.70
2018-01-06T21:59:47.802Z,78.66
2018-01-06T22:02:15.191Z,79.74
2018-01-06T22:04:42.644Z,78.95
2018-01-06T22:07:10.075Z,78.11
2018-01-06T22:09:37.474Z,77.78
2018-01-06T22:12:04.863Z,77.88
2018-01-06T22:14:32.271Z,78.04
2018-01-06T22:16:59.816Z,77.50
2018-01-06T22:19:27.188Z,77.95
2018-01-06T22:21:54.583Z,78.04
2018-01-06T22:24:21.988Z,78.23
2018-01-06T22:26:49.379Z,78.48
2018-01-06T22:29:16.774Z,78.13
2018-01-06T22:31:44.187Z,78.08
2018-01-06T22:34:11.586Z,78.42
2018-01-06T22:36:38.982Z,78.47
2018-01-06T22:39:06.733Z,78.75
2018-01-06T22:41:34.688Z,78.54
2018-01-06T22:44:02.091Z,78.59
2018-01-06T22:46:29.486Z,78.35
2018-01-06T22:48:56.878Z,78.25
2018-01-06T22:51:24.278Z,78.08
2018-01-06T22:53:51.661Z,78.16
2018-01-06T22:56:19.051Z,78.29
2018-01-06T22:58:46.475Z,78.59
2018-01-06T23:01:21.267Z,78.33
2018-01-06T23:03:48.651Z,78.31
2018-01-06T23:06:16.051Z,77.56
2018-01-06T23:08:43.448Z,77.90
2018-01-06T23:11:10.831Z,78.29
2018-01-06T23:13:38.244Z,78.55
2018-01-06T23:16:05.614Z,78.84
2018-01-06T23:18:33.036Z,78.77
2018-01-06T23:21:00.413Z,78.96
2018-01-06T23:23:27.829Z,79.03
2018-01-06T23:25:55.226Z,78.67
2018-01-06T23:28:22.624Z,79.22
2018-01-06T23:30:49.998Z,78.33
2018-01-06T23:33:17.402Z,78.10
2018-01-06T23:35:44.815Z,78.03
2018-01-06T23:38:12.226Z,78.16
2018-01-06T23:40:39.620Z,78.06
2018-01-06T23:43:07.018Z,78.50
2018-01-06T23:45:34.478Z,79.31
2018-01-06T23:48:01.885Z,79.34
2018-01-06T23:50:29.286Z,79.23
2018-01-06T23:52:56.706Z,79.00
2018-01-06T23:55:24.215Z,78.03
2018-01-06T23:57:51.778Z,78.30
